Time;durP1;ratioP1;P1;durP2;ratioP2;P2;SDS_P1;SDS_P2;PMS_P1;PMS_P2;Temp;Humidity;BMP_temperature;BMP_pressure;BME280_temperature;BME280_humidity;BME280_pressure;Samples;Min_cycle;Max_cycle;Signal;HPM_P1;HPM_P2
2023/03/11 00:01:09;;;;;;;1.88;0.20;;;10.00;99.90;;;;;;6134890;23;20036;-79
2023/03/11 00:03:38;;;;;;;0.55;0.10;;;10.00;99.90;;;;;;6133876;23;20752;-79
2023/03/11 00:06:06;;;;;;;0.70;0.03;;;10.00;99.30;;;;;;6107554;23;20102;-80
2023/03/11 00:08:33;;;;;;;0.25;0.08;;;9.90;99.90;;;;;;6107877;23;20124;-79
2023/03/11 00:11:00;;;;;;;0.13;0.00;;;9.80;99.90;;;;;;6133935;23;20448;-79
2023/03/11 00:13:28;;;;;;;0.50;0.00;;;9.70;99.90;;;;;;6136818;23;20061;-78
2023/03/11 00:15:56;;;;;;;0.20;0.00;;;9.80;99.20;;;;;;6113534;23;20021;-78
2023/03/11 00:18:26;;;;;;;0.08;0.00;;;9.80;99.20;;;;;;6133673;23;20109;-79
2023/03/11 00:20:57;;;;;;;0.52;0.00;;;9.80;97.80;;;;;;6138122;23;20465;-79
2023/03/11 00:23:25;;;;;;;0.65;0.10;;;9.80;97.60;;;;;;6118344;23;20398;-78
2023/03/11 00:25:53;;;;;;;0.00;0.00;;;8.80;97.50;;;;;;6144572;23;20095;-78
2023/03/11 00:28:24;;;;;;;0.10;0.10;;;9.70;98.40;;;;;;6142718;23;20338;-79
2023/03/11 00:30:51;;;;;;;0.30;0.00;;;9.70;97.90;;;;;;6121966;23;20442;-79
2023/03/11 00:33:19;;;;;;;0.17;0.00;;;9.70;97.80;;;;;;6149888;23;20376;-79
2023/03/11 00:35:46;;;;;;;0.10;0.00;;;9.60;97.80;;;;;;6123124;23;20020;-79
2023/03/11 00:38:16;;;;;;;0.35;0.00;;;9.40;97.50;;;;;;6118185;23;20212;-79
2023/03/11 00:40:45;;;;;;;0.20;0.03;;;8.30;97.40;;;;;;6145323;23;20020;-79
2023/03/11 00:43:13;;;;;;;0.70;0.00;;;9.60;97.30;;;;;;6118919;23;20020;-79
2023/03/11 00:45:41;;;;;;;0.68;0.00;;;9.60;97.10;;;;;;6169738;23;20024;-78
2023/03/11 00:48:08;;;;;;;2.70;0.20;;;9.70;96.60;;;;;;6120052;23;20025;-81
2023/03/11 00:50:36;;;;;;;0.85;0.00;;;9.80;96.20;;;;;;6145681;23;20021;-79
2023/03/11 00:53:04;;;;;;;0.10;0.00;;;9.80;95.70;;;;;;6147925;23;20032;-79
2023/03/11 00:55:34;;;;;;;0.30;0.00;;;9.70;95.70;;;;;;6125051;23;20100;-81
2023/03/11 00:58:06;;;;;;;0.20;0.00;;;9.70;96.20;;;;;;6125560;23;20107;-79
2023/03/11 01:00:39;;;;;;;0.47;0.00;;;9.80;95.20;;;;;;6122429;23;20025;-78
2023/03/11 01:03:06;;;;;;;0.40;0.00;;;9.70;94.70;;;;;;6143501;23;20072;-79
2023/03/11 01:05:34;;;;;;;0.35;0.00;;;9.60;94.60;;;;;;6120731;23;20025;-79
2023/03/11 01:08:02;;;;;;;0.20;0.00;;;9.70;94.40;;;;;;6168931;23;20532;-79
2023/03/11 01:10:33;;;;;;;0.45;0.00;;;9.70;94.50;;;;;;6149143;23;20428;-77
2023/03/11 01:13:01;;;;;;;0.63;0.00;;;9.80;93.30;;;;;;6119518;23;20451;-79
2023/03/11 01:15:32;;;;;;;0.20;0.00;;;9.80;93.50;;;;;;6144833;23;20453;-79
2023/03/11 01:18:00;;;;;;;0.77;0.10;;;9.90;92.80;;;;;;6144875;23;20509;-80
2023/03/11 01:20:28;;;;;;;0.00;0.00;;;9.70;93.60;;;;;;6121882;23;20079;-80
2023/03/11 01:22:55;;;;;;;1.77;0.00;;;9.70;93.20;;;;;;6147929;23;20025;-79
2023/03/11 01:25:23;;;;;;;0.43;0.00;;;9.70;93.10;;;;;;6125910;23;20025;-79
2023/03/11 01:27:52;;;;;;;0.50;0.00;;;9.60;93.10;;;;;;6119831;23;20412;-77
2023/03/11 01:30:22;;;;;;;1.20;0.10;;;9.60;92.70;;;;;;6151101;23;20121;-78
2023/03/11 01:32:51;;;;;;;1.55;0.25;;;9.70;92.30;;;;;;6125437;23;20483;-80
2023/03/11 01:35:20;;;;;;;0.22;0.00;;;10.30;92.50;;;;;;6122237;23;20024;-78
2023/03/11 01:37:47;;;;;;;1.08;0.10;;;9.60;92.40;;;;;;6147110;23;20024;-79
2023/03/11 01:40:30;;;;;;;0.32;0.08;;;9.70;92.20;;;;;;6144685;23;20120;-79
2023/03/11 01:43:02;;;;;;;0.25;0.05;;;9.70;92.00;;;;;;6125064;23;20055;-79
2023/03/11 01:45:48;;;;;;;0.30;0.00;;;9.60;91.70;;;;;;6120653;23;20488;-79
2023/03/11 01:48:18;;;;;;;0.50;0.03;;;8.40;91.60;;;;;;6144415;23;20048;-79
2023/03/11 01:50:49;;;;;;;1.45;0.10;;;9.50;92.20;;;;;;6144943;23;20108;-79
2023/03/11 01:53:17;;;;;;;0.60;0.00;;;9.30;92.10;;;;;;6123656;23;20027;-79
2023/03/11 01:55:47;;;;;;;3.50;0.20;;;9.40;92.00;;;;;;6124694;23;20352;-77
2023/03/11 01:58:23;;;;;;;1.13;0.10;;;9.40;91.50;;;;;;6143975;23;20364;-79
2023/03/11 02:00:51;;;;;;;1.08;0.90;;;9.40;91.60;;;;;;6126510;23;20013;-78
2023/03/11 02:03:26;;;;;;;1.58;0.13;;;9.30;91.90;;;;;;6119807;23;20091;-79
2023/03/11 02:05:56;;;;;;;0.55;0.10;;;9.30;92.00;;;;;;6151077;23;20017;-79
2023/03/11 02:08:23;;;;;;;1.05;0.10;;;9.30;92.00;;;;;;6119512;23;20021;-77
2023/03/11 02:10:54;;;;;;;0.20;0.03;;;9.20;92.20;;;;;;6143457;23;20021;-79
2023/03/11 02:13:22;;;;;;;0.28;0.00;;;9.20;92.10;;;;;;6142244;23;20423;-78
2023/03/11 02:15:52;;;;;;;0.20;0.00;;;9.10;92.10;;;;;;6120193;23;20531;-79
2023/03/11 02:18:21;;;;;;;0.25;0.10;;;9.20;92.00;;;;;;6123462;23;20024;-79
2023/03/11 02:21:00;;;;;;;0.47;0.10;;;9.10;92.30;;;;;;6129175;23;20453;-80
2023/03/11 02:23:54;;;;;;;0.10;0.00;;;9.10;92.10;;;;;;6125092;23;20492;-79
2023/03/11 02:26:55;;;;;;;0.85;0.10;;;9.00;91.90;;;;;;6119495;23;20365;-79
2023/03/11 02:29:26;;;;;;;0.60;0.10;;;9.20;90.90;;;;;;6106638;23;20397;-78
2023/03/11 02:31:57;;;;;;;0.82;0.10;;;9.10;91.10;;;;;;6143098;23;20027;-78
2023/03/11 02:34:28;;;;;;;0.88;0.10;;;9.10;91.20;;;;;;6119222;23;20044;-78
2023/03/11 02:36:57;;;;;;;2.35;0.00;;;9.10;90.30;;;;;;6146548;23;20108;-78
2023/03/11 02:39:46;;;;;;;0.98;0.00;;;9.20;90.10;;;;;;6142798;23;20562;-78
2023/03/11 02:42:27;;;;;;;0.40;0.10;;;9.10;89.30;;;;;;6118112;23;20752;-78
2023/03/11 02:44:54;;;;;;;0.30;0.08;;;9.20;88.70;;;;;;6117952;23;20282;-78
2023/03/11 02:47:21;;;;;;;1.10;0.00;;;9.10;89.10;;;;;;6143348;23;20144;-78
2023/03/11 02:49:49;;;;;;;1.30;0.10;;;9.10;88.80;;;;;;6119306;23;20041;-79
2023/03/11 02:52:16;;;;;;;0.30;0.10;;;9.20;88.80;;;;;;6121456;23;20021;-78
2023/03/11 02:54:44;;;;;;;1.38;0.10;;;9.20;88.70;;;;;;6124858;23;20027;-79
2023/03/11 02:57:11;;;;;;;0.43;0.00;;;9.20;88.30;;;;;;6147048;23;20148;-79
2023/03/11 02:59:40;;;;;;;2.78;0.30;;;9.20;88.30;;;;;;6123784;23;20059;-79
2023/03/11 03:02:07;;;;;;;0.05;0.00;;;9.10;88.30;;;;;;6146369;23;20029;-78
2023/03/11 03:04:35;;;;;;;0.40;0.10;;;9.20;86.80;;;;;;6149135;23;20049;-79
2023/03/11 03:07:02;;;;;;;0.32;0.00;;;9.10;87.90;;;;;;6145121;23;20029;-78
2023/03/11 03:09:31;;;;;;;0.85;0.10;;;9.10;87.70;;;;;;6148600;23;20021;-78
2023/03/11 03:11:58;;;;;;;0.32;0.00;;;9.20;86.40;;;;;;6124391;23;20044;-80
2023/03/11 03:14:26;;;;;;;2.35;0.13;;;9.30;85.40;;;;;;6145796;23;20112;-81
2023/03/11 03:16:53;;;;;;;1.77;0.10;;;9.40;83.20;;;;;;6122414;23;20104;-80
2023/03/11 03:19:20;;;;;;;0.98;0.10;;;9.40;83.40;;;;;;6126295;23;20035;-80
2023/03/11 03:21:48;;;;;;;0.63;0.10;;;9.50;81.90;;;;;;6120678;23;20074;-81
2023/03/11 03:24:15;;;;;;;1.05;0.00;;;9.60;81.40;;;;;;6122070;23;20412;-81
2023/03/11 03:26:45;;;;;;;2.20;0.10;;;9.70;80.80;;;;;;6120674;23;20405;-80
2023/03/11 03:29:13;;;;;;;1.25;0.10;;;9.70;80.80;;;;;;6121379;23;20020;-78
2023/03/11 03:31:40;;;;;;;0.55;0.13;;;9.70;80.20;;;;;;6125570;23;20116;-80
2023/03/11 03:34:08;;;;;;;0.50;0.20;;;9.00;78.40;;;;;;6121675;23;20036;-80
2023/03/11 03:36:36;;;;;;;2.63;0.00;;;9.70;79.70;;;;;;6121342;23;20029;-78
2023/03/11 03:39:05;;;;;;;1.75;0.10;;;9.80;78.70;;;;;;6122115;23;20124;-79
2023/03/11 03:41:35;;;;;;;1.02;0.10;;;9.70;77.90;;;;;;6121107;23;20025;-80
2023/03/11 03:44:05;;;;;;;1.67;0.10;;;9.70;77.40;;;;;;6152120;23;20475;-80
2023/03/11 03:46:34;;;;;;;1.33;0.10;;;9.60;78.40;;;;;;6147800;23;20025;-79
2023/03/11 03:49:03;;;;;;;1.23;0.10;;;9.30;75.40;;;;;;6121004;23;20021;-78
2023/03/11 03:51:32;;;;;;;0.95;0.08;;;9.70;74.30;;;;;;6145916;23;20128;-79
2023/03/11 03:54:07;;;;;;;0.50;0.00;;;9.70;73.10;;;;;;6125248;23;20028;-79
2023/03/11 03:56:35;;;;;;;0.63;0.10;;;9.60;72.80;;;;;;6122061;23;20072;-80
2023/03/11 03:59:03;;;;;;;2.55;0.08;;;9.60;71.90;;;;;;6122061;23;20032;-79
2023/03/11 04:01:37;;;;;;;4.68;0.03;;;9.50;70.70;;;;;;6129103;23;20021;-80
2023/03/11 04:04:04;;;;;;;0.85;0.10;;;9.50;70.00;;;;;;6125232;23;20049;-79
2023/03/11 04:06:32;;;;;;;0.40;0.00;;;9.40;70.30;;;;;;6121855;23;20049;-80
2023/03/11 04:09:04;;;;;;;0.30;0.00;;;9.50;69.20;;;;;;6146819;23;20336;-79
2023/03/11 04:11:33;;;;;;;1.65;0.00;;;9.40;69.30;;;;;;6145004;23;20263;-80
2023/03/11 04:14:03;;;;;;;1.05;0.00;;;9.40;69.20;;;;;;6122199;23;20508;-79
2023/03/11 04:16:33;;;;;;;1.55;0.10;;;9.30;69.00;;;;;;6125039;23;20028;-81
2023/03/11 04:19:05;;;;;;;0.47;0.17;;;9.40;70.10;;;;;;6150033;23;20056;-79
2023/03/11 04:21:33;;;;;;;1.52;0.10;;;9.30;70.50;;;;;;6121371;23;20464;-80
2023/03/11 04:24:01;;;;;;;0.30;0.00;;;9.20;70.10;;;;;;6122227;23;20079;-81
2023/03/11 04:26:32;;;;;;;0.30;0.00;;;9.20;70.70;;;;;;6126458;23;20021;-79
2023/03/11 04:29:02;;;;;;;0.40;0.05;;;9.00;70.10;;;;;;6148099;23;20472;-82
2023/03/11 04:31:34;;;;;;;0.60;0.10;;;9.10;70.80;;;;;;6148029;23;20025;-80
2023/03/11 04:34:04;;;;;;;0.52;0.10;;;9.00;70.90;;;;;;6125102;23;20040;-82
2023/03/11 04:36:33;;;;;;;1.55;0.10;;;8.90;70.30;;;;;;6121368;23;20024;-81
2023/03/11 04:39:02;;;;;;;2.35;0.08;;;9.10;70.80;;;;;;6146091;23;20036;-80
2023/03/11 04:41:36;;;;;;;0.98;0.10;;;9.00;71.10;;;;;;6126784;23;20432;-80
2023/03/11 04:44:06;;;;;;;1.73;0.10;;;8.90;70.30;;;;;;6152601;23;20021;-80
2023/03/11 04:46:34;;;;;;;1.77;0.10;;;8.90;69.80;;;;;;6145847;23;20021;-81
2023/03/11 04:49:07;;;;;;;1.13;0.10;;;8.90;69.10;;;;;;6145971;23;20048;-80
2023/03/11 04:51:34;;;;;;;1.48;0.10;;;8.90;69.70;;;;;;6127229;23;20433;-82
2023/03/11 04:54:02;;;;;;;3.30;0.30;;;9.00;68.90;;;;;;6144859;23;20020;-80
2023/03/11 04:56:32;;;;;;;4.88;0.15;;;8.80;67.90;;;;;;6124215;23;20040;-81
2023/03/11 04:59:03;;;;;;;1.88;0.13;;;8.70;67.80;;;;;;6148701;23;20025;-81
2023/03/11 05:01:32;;;;;;;4.28;0.30;;;8.60;66.80;;;;;;6121536;23;20479;-80
2023/03/11 05:04:04;;;;;;;11.15;0.38;;;8.60;62.60;;;;;;6145459;23;20085;-78
2023/03/11 05:06:32;;;;;;;10.07;0.75;;;8.50;62.20;;;;;;6126175;23;20032;-81
2023/03/11 05:09:01;;;;;;;14.25;1.13;;;8.40;62.20;;;;;;6121295;23;20059;-78
2023/03/11 05:11:35;;;;;;;18.80;0.90;;;8.20;62.20;;;;;;6077928;23;20886;-81
2023/03/11 05:14:03;;;;;;;14.95;0.57;;;8.20;62.40;;;;;;6126779;23;20021;-78
2023/03/11 05:16:30;;;;;;;27.98;1.73;;;8.10;63.00;;;;;;6120656;23;20103;-79
2023/03/11 05:19:00;;;;;;;13.45;0.60;;;8.10;63.80;;;;;;6126492;23;20021;-81
2023/03/11 05:21:51;;;;;;;12.23;0.38;;;7.90;64.70;;;;;;6094895;23;20030;-80
2023/03/11 05:24:19;;;;;;;23.67;1.08;;;7.90;64.80;;;;;;6085151;23;20066;-79
2023/03/11 05:26:48;;;;;;;33.53;1.73;;;7.80;64.70;;;;;;6065723;23;20121;-79
2023/03/11 05:29:16;;;;;;;35.45;1.88;;;7.60;64.80;;;;;;6085489;23;20085;-80
2023/03/11 05:31:45;;;;;;;41.33;1.80;;;7.70;65.10;;;;;;6084070;23;20562;-81
2023/03/11 05:34:14;;;;;;;23.02;1.95;;;7.70;66.10;;;;;;6091235;23;20029;-81
2023/03/11 05:36:41;;;;;;;29.60;5.18;;;7.60;66.00;;;;;;6093204;23;20101;-79
2023/03/11 05:39:09;;;;;;;26.38;1.80;;;7.50;66.50;;;;;;6084985;23;20780;-78
2023/03/11 05:41:36;;;;;;;7.10;0.73;;;7.50;66.20;;;;;;6065011;23;20442;-79
2023/03/11 05:44:04;;;;;;;17.33;0.77;;;5.90;66.20;;;;;;6061576;23;20521;-79
2023/03/11 05:46:33;;;;;;;13.35;0.90;;;7.90;67.30;;;;;;6060463;23;20110;-81
2023/03/11 05:49:01;;;;;;;17.20;2.67;;;7.30;67.80;;;;;;6085842;23;20542;-80
2023/03/11 05:51:28;;;;;;;20.15;1.15;;;7.20;68.30;;;;;;6087001;23;20401;-79
2023/03/11 05:53:57;;;;;;;15.55;1.25;;;7.30;68.20;;;;;;6116650;23;20032;-80
2023/03/11 05:56:33;;;;;;;19.95;4.80;;;6.90;68.30;;;;;;6144785;23;20029;-79
2023/03/11 05:59:01;;;;;;;14.02;2.45;;;7.20;68.70;;;;;;6144413;23;20536;-80
2023/03/11 06:01:34;;;;;;;20.50;2.65;;;7.30;68.90;;;;;;6124619;23;20051;-78
2023/03/11 06:04:02;;;;;;;6.57;0.40;;;7.10;68.50;;;;;;6122290;23;20087;-79
2023/03/11 06:06:29;;;;;;;7.95;0.40;;;7.00;68.70;;;;;;6145491;23;20040;-80
2023/03/11 06:08:57;;;;;;;10.63;0.90;;;7.30;69.30;;;;;;6149861;23;20079;-80
2023/03/11 06:11:27;;;;;;;13.95;1.98;;;7.10;67.30;;;;;;6145302;23;20475;-80
2023/03/11 06:13:56;;;;;;;11.18;1.08;;;7.10;67.90;;;;;;6148514;23;20021;-80
2023/03/11 06:16:25;;;;;;;13.85;2.17;;;7.00;68.50;;;;;;6122331;23;20028;-80
2023/03/11 06:18:59;;;;;;;15.80;1.58;;;7.20;69.40;;;;;;6150575;23;20021;-81
2023/03/11 06:21:29;;;;;;;5.70;0.40;;;7.10;68.60;;;;;;6146629;23;20440;-78
2023/03/11 06:23:57;;;;;;;10.25;0.90;;;7.00;66.90;;;;;;6121590;23;20044;-79
2023/03/11 06:26:26;;;;;;;6.88;0.93;;;6.90;66.70;;;;;;6146785;23;20417;-80
2023/03/11 06:28:53;;;;;;;6.55;0.50;;;6.70;67.60;;;;;;6121679;23;20516;-79
2023/03/11 06:31:24;;;;;;;7.88;0.52;;;6.90;67.70;;;;;;6121536;23;20021;-78
2023/03/11 06:33:54;;;;;;;8.95;0.45;;;6.80;67.50;;;;;;6147185;23;20031;-80
2023/03/11 06:36:25;;;;;;;4.22;0.20;;;6.90;68.40;;;;;;6121877;23;20021;-78
2023/03/11 06:38:53;;;;;;;6.80;0.40;;;6.80;68.20;;;;;;6147571;23;20332;-79
2023/03/11 06:41:23;;;;;;;3.65;0.40;;;5.70;67.30;;;;;;6148562;23;20021;-81
2023/03/11 06:43:52;;;;;;;3.00;0.40;;;6.80;67.90;;;;;;6124052;23;20076;-79
2023/03/11 06:46:21;;;;;;;6.13;0.52;;;6.80;68.40;;;;;;6121596;23;20404;-80
2023/03/11 06:48:53;;;;;;;3.05;0.40;;;6.70;68.30;;;;;;6150722;23;20108;-81
2023/03/11 06:51:21;;;;;;;1.90;0.30;;;6.80;68.50;;;;;;6149606;23;20028;-80
2023/03/11 06:53:51;;;;;;;0.98;0.20;;;6.80;68.90;;;;;;6122441;23;20364;-81
2023/03/11 06:56:21;;;;;;;2.72;0.20;;;6.70;66.90;;;;;;6123249;23;20461;-80
2023/03/11 06:58:54;;;;;;;0.80;0.10;;;6.70;66.80;;;;;;6172931;23;20037;-78
2023/03/11 07:01:24;;;;;;;0.98;0.20;;;6.70;67.20;;;;;;6146870;23;20068;-81
2023/03/11 07:03:54;;;;;;;1.00;0.20;;;6.70;66.30;;;;;;6122508;23;20080;-80
2023/03/11 07:06:26;;;;;;;1.40;0.35;;;6.80;66.20;;;;;;6121884;23;20036;-80
2023/03/11 07:09:00;;;;;;;2.15;0.20;;;7.00;67.10;;;;;;6125995;23;20048;-80
2023/03/11 07:11:29;;;;;;;0.40;0.10;;;6.80;66.00;;;;;;6148003;23;20100;-79
2023/03/11 07:14:06;;;;;;;2.40;0.30;;;6.70;65.90;;;;;;6149728;23;20028;-80
2023/03/11 07:16:38;;;;;;;1.45;0.35;;;6.90;66.20;;;;;;6125008;23;20029;-80
2023/03/11 07:19:13;;;;;;;0.90;0.10;;;7.00;64.80;;;;;;6126734;23;20017;-78
2023/03/11 07:21:40;;;;;;;0.60;0.20;;;6.90;64.40;;;;;;6123558;23;20025;-80
2023/03/11 07:24:11;;;;;;;1.50;0.20;;;6.90;64.30;;;;;;6124199;23;20150;-80
2023/03/11 07:26:41;;;;;;;0.60;0.10;;;6.90;64.50;;;;;;6120506;23;20116;-80
2023/03/11 07:29:10;;;;;;;0.97;0.30;;;6.80;63.70;;;;;;6129613;23;20091;-81
2023/03/11 07:31:38;;;;;;;0.85;0.30;;;6.80;63.70;;;;;;6123390;23;20025;-80
2023/03/11 07:34:10;;;;;;;1.05;0.20;;;6.90;63.60;;;;;;6123789;23;20024;-81
2023/03/11 07:36:41;;;;;;;1.10;0.50;;;6.80;63.40;;;;;;6150190;23;20037;-81
2023/03/11 07:39:15;;;;;;;2.35;0.40;;;6.90;63.90;;;;;;6148772;23;20044;-81
2023/03/11 07:41:45;;;;;;;0.95;0.40;;;7.00;63.90;;;;;;6145851;23;20380;-81
2023/03/11 07:44:14;;;;;;;1.25;0.20;;;6.90;63.20;;;;;;6147470;23;20027;-79
2023/03/11 07:46:42;;;;;;;1.40;0.10;;;6.90;63.00;;;;;;6120838;23;20031;-80
2023/03/11 07:49:10;;;;;;;0.50;0.20;;;6.90;64.10;;;;;;6148906;23;20353;-81
2023/03/11 07:51:41;;;;;;;1.75;0.10;;;6.70;62.90;;;;;;6146105;23;20013;-81
2023/03/11 07:54:10;;;;;;;2.22;0.10;;;6.70;63.50;;;;;;6149603;23;20088;-80
2023/03/11 07:56:38;;;;;;;0.40;0.10;;;6.60;63.50;;;;;;6148849;23;20095;-81
2023/03/11 07:59:05;;;;;;;1.05;0.10;;;7.60;64.10;;;;;;6121445;23;20055;-81
2023/03/11 08:01:39;;;;;;;0.30;0.10;;;6.90;63.90;;;;;;6150767;23;20036;-80
2023/03/11 08:04:09;;;;;;;1.55;0.20;;;6.80;63.80;;;;;;6122627;23;20029;-79
2023/03/11 08:06:42;;;;;;;0.50;0.20;;;6.70;64.00;;;;;;6120477;23;20031;-81
2023/03/11 08:09:09;;;;;;;0.88;0.20;;;6.90;63.60;;;;;;6118324;23;20479;-81
2023/03/11 08:11:37;;;;;;;0.70;0.10;;;6.80;63.10;;;;;;6144328;23;20769;-80
2023/03/11 08:14:05;;;;;;;1.42;0.20;;;7.00;63.50;;;;;;6121774;23;20047;-81
2023/03/11 08:16:32;;;;;;;1.95;1.10;;;6.30;62.30;;;;;;6118860;23;20021;-81
2023/03/11 08:19:00;;;;;;;7.90;3.78;;;7.30;62.70;;;;;;6117717;23;20017;-79
2023/03/11 08:21:30;;;;;;;6.43;1.90;;;7.30;63.40;;;;;;6118891;23;20372;-81
2023/03/11 08:24:00;;;;;;;4.00;1.50;;;7.20;62.30;;;;;;6119243;23;20248;-80
2023/03/11 08:26:27;;;;;;;6.20;2.90;;;7.30;63.10;;;;;;6118802;23;20091;-78
2023/03/11 08:28:58;;;;;;;2.05;0.30;;;7.60;62.90;;;;;;6143357;23;20083;-80
2023/03/11 08:31:29;;;;;;;1.20;0.13;;;7.50;62.50;;;;;;6141012;23;20055;-80
2023/03/11 08:34:09;;;;;;;0.85;0.20;;;7.70;61.80;;;;;;6118869;23;20056;-81
2023/03/11 08:36:36;;;;;;;1.40;0.22;;;7.90;61.00;;;;;;6131487;23;20045;-81
2023/03/11 08:39:04;;;;;;;1.77;0.63;;;7.90;61.90;;;;;;6157072;23;20060;-80
2023/03/11 08:41:33;;;;;;;1.38;0.40;;;7.70;61.00;;;;;;6146414;23;20277;-80
2023/03/11 08:44:00;;;;;;;2.08;0.25;;;7.80;60.90;;;;;;6119483;23;20055;-81
2023/03/11 08:46:30;;;;;;;1.52;0.65;;;7.60;61.30;;;;;;6121327;23;20029;-80
2023/03/11 08:48:59;;;;;;;3.25;1.05;;;7.50;61.50;;;;;;6121801;23;20504;-80
2023/03/11 08:51:28;;;;;;;3.05;0.50;;;7.50;61.60;;;;;;6143528;23;20091;-80
2023/03/11 08:53:55;;;;;;;8.00;2.33;;;7.30;60.60;;;;;;6122252;23;20051;-81
2023/03/11 08:56:23;;;;;;;4.93;1.95;;;7.30;61.20;;;;;;6122635;23;20055;-80
2023/03/11 08:58:50;;;;;;;5.70;1.15;;;7.40;61.50;;;;;;6146224;23;20340;-79
2023/03/11 09:01:19;;;;;;;11.10;4.43;;;7.30;61.00;;;;;;6146018;23;20024;-81
2023/03/11 09:03:46;;;;;;;10.70;4.40;;;7.20;61.70;;;;;;6122206;23;20028;-80
2023/03/11 09:06:15;;;;;;;4.55;1.33;;;7.70;61.40;;;;;;6116054;23;20017;-80
2023/03/11 09:08:43;;;;;;;7.53;1.05;;;8.00;61.20;;;;;;6144833;23;20021;-80
2023/03/11 09:11:12;;;;;;;5.80;0.35;;;7.60;60.50;;;;;;6146141;23;20040;-80
2023/03/11 09:13:41;;;;;;;3.10;0.40;;;7.40;60.60;;;;;;6142558;23;20024;-80
2023/03/11 09:16:18;;;;;;;3.17;0.88;;;7.50;60.50;;;;;;6121477;23;20020;-78
2023/03/11 09:18:51;;;;;;;4.03;1.15;;;7.60;60.70;;;;;;6121528;23;20044;-79
2023/03/11 09:21:22;;;;;;;2.85;0.93;;;7.70;59.90;;;;;;6123396;23;20029;-80
2023/03/11 09:23:51;;;;;;;7.78;1.83;;;8.00;61.10;;;;;;6140638;23;20029;-79
2023/03/11 09:26:24;;;;;;;4.82;2.08;;;7.90;60.10;;;;;;6108260;23;20838;-80
2023/03/11 09:28:55;;;;;;;2.63;0.98;;;7.70;60.10;;;;;;6138569;23;20045;-80
2023/03/11 09:31:24;;;;;;;2.22;1.10;;;8.00;61.50;;;;;;6103912;23;20237;-79
2023/03/11 09:33:55;;;;;;;2.25;0.68;;;8.50;62.00;;;;;;6087457;23;20022;-78
2023/03/11 09:36:24;;;;;;;1.08;0.43;;;8.40;59.60;;;;;;6136014;23;20048;-81
2023/03/11 09:38:51;;;;;;;4.90;0.60;;;8.20;60.50;;;;;;6086611;23;20041;-81
2023/03/11 09:41:32;;;;;;;3.17;0.50;;;8.90;60.30;;;;;;6111815;23;20088;-82
2023/03/11 09:44:17;;;;;;;1.55;0.60;;;7.90;60.90;;;;;;6115739;23;20091;-78
2023/03/11 09:47:15;;;;;;;2.10;0.30;;;7.90;60.90;;;;;;6139659;23;20030;-80
2023/03/11 09:50:03;;;;;;;0.82;0.13;;;8.10;60.70;;;;;;6137730;23;20441;-79
2023/03/11 09:52:59;;;;;;;1.77;0.20;;;8.90;61.30;;;;;;6112673;23;20022;-80
2023/03/11 09:55:59;;;;;;;1.30;0.25;;;8.90;60.10;;;;;;6116808;23;20441;-80
2023/03/11 09:58:34;;;;;;;3.60;1.15;;;8.80;60.50;;;;;;6138512;23;20022;-82
2023/03/11 10:01:15;;;;;;;1.25;0.40;;;8.80;60.20;;;;;;6137431;23;20022;-81
2023/03/11 10:03:43;;;;;;;8.30;4.22;;;8.40;60.00;;;;;;6139038;23;20093;-78
2023/03/11 10:06:20;;;;;;;1.73;0.77;;;8.40;60.00;;;;;;6088917;23;20056;-79
2023/03/11 10:09:01;;;;;;;2.17;0.57;;;8.60;60.20;;;;;;6112663;23;20528;-79
2023/03/11 10:11:50;;;;;;;1.65;0.50;;;8.90;60.90;;;;;;6139089;23;20916;-81
2023/03/11 10:14:44;;;;;;;2.70;1.27;;;8.60;60.70;;;;;;6111662;23;20021;-81
2023/03/11 10:17:30;;;;;;;5.45;1.27;;;8.60;61.30;;;;;;6133908;23;20025;-79
2023/03/11 10:20:19;;;;;;;2.88;0.20;;;8.40;61.20;;;;;;6124205;23;20025;-79
2023/03/11 10:23:21;;;;;;;0.95;0.30;;;8.60;60.20;;;;;;6120583;23;20503;-82
2023/03/11 10:26:10;;;;;;;10.88;0.50;;;8.80;60.80;;;;;;6145439;23;20452;-80
2023/03/11 10:28:46;;;;;;;4.22;0.32;;;8.60;60.40;;;;;;6121675;23;20027;-80
2023/03/11 10:31:27;;;;;;;2.78;0.25;;;7.90;61.90;;;;;;6124390;23;20021;-81
2023/03/11 10:34:32;;;;;;;4.68;0.20;;;7.70;61.70;;;;;;6121186;23;20088;-81
2023/03/11 10:37:25;;;;;;;5.57;0.40;;;7.70;62.60;;;;;;6129097;23;20365;-82
2023/03/11 10:40:22;;;;;;;2.22;0.93;;;7.80;63.10;;;;;;6122375;23;20021;-80
2023/03/11 10:42:53;;;;;;;2.38;0.10;;;7.60;63.30;;;;;;6123550;23;20021;-80
2023/03/11 10:45:22;;;;;;;2.50;0.57;;;7.30;62.90;;;;;;6146151;23;20040;-80
2023/03/11 10:47:50;;;;;;;2.15;0.80;;;7.50;63.70;;;;;;6120015;23;20033;-80
2023/03/11 10:50:19;;;;;;;2.00;0.65;;;7.60;64.10;;;;;;6148116;23;20028;-82
2023/03/11 10:53:13;;;;;;;4.45;0.60;;;7.40;63.70;;;;;;6144463;23;20040;-80
2023/03/11 10:55:47;;;;;;;3.83;0.25;;;7.30;64.10;;;;;;6119822;23;20361;-80
2023/03/11 10:58:24;;;;;;;3.38;0.63;;;7.40;64.40;;;;;;6150240;23;20025;-79
2023/03/11 11:01:14;;;;;;;2.03;0.17;;;7.80;64.40;;;;;;6143511;23;20064;-80
2023/03/11 11:03:44;;;;;;;11.00;0.60;;;7.70;64.20;;;;;;6122933;23;20115;-80
2023/03/11 11:06:28;;;;;;;6.28;0.85;;;7.10;64.30;;;;;;6147189;23;20017;-79
2023/03/11 11:09:23;;;;;;;7.05;0.30;;;7.20;64.30;;;;;;6147798;23;20461;-81
2023/03/11 11:12:14;;;;;;;6.47;0.30;;;7.20;64.40;;;;;;6131049;23;20075;-80
2023/03/11 11:14:44;;;;;;;3.63;0.30;;;7.10;64.50;;;;;;6127006;23;20017;-81
2023/03/11 11:17:19;;;;;;;6.95;0.57;;;7.10;65.00;;;;;;6124530;23;20051;-81
2023/03/11 11:19:48;;;;;;;5.57;0.10;;;7.20;65.50;;;;;;6147780;23;20025;-80
2023/03/11 11:22:19;;;;;;;6.80;0.47;;;6.90;64.70;;;;;;6131276;23;20056;-81
2023/03/11 11:24:50;;;;;;;3.33;0.30;;;7.40;65.40;;;;;;6125778;23;20033;-80
2023/03/11 11:27:23;;;;;;;6.03;0.43;;;7.20;64.50;;;;;;6154160;23;20039;-80
2023/03/11 11:30:02;;;;;;;;;;;7.10;64.70;;;;;;6131548;23;20045;-81
2023/03/11 11:32:30;;;;;;;4.00;0.25;;;7.20;64.70;;;;;;6127134;23;19920;-82
2023/03/11 11:35:00;;;;;;;2.30;0.30;;;6.90;64.80;;;;;;6149630;23;20468;-81
2023/03/11 11:37:37;;;;;;;3.83;0.20;;;7.20;64.50;;;;;;6150442;23;20033;-81
2023/03/11 11:40:14;;;;;;;4.28;0.28;;;7.30;63.50;;;;;;6126042;23;20044;-81
2023/03/11 11:43:02;;;;;;;2.75;0.10;;;7.30;63.10;;;;;;6124032;23;20492;-78
2023/03/11 11:45:37;;;;;;;3.38;0.35;;;6.20;62.60;;;;;;6124312;23;20021;-79
2023/03/11 11:48:16;;;;;;;4.63;0.20;;;7.20;62.60;;;;;;6149612;23;20021;-78
2023/03/11 11:50:50;;;;;;;3.20;0.30;;;7.10;63.10;;;;;;6132665;23;20095;-79
2023/03/11 11:53:33;;;;;;;6.35;0.20;;;7.20;63.60;;;;;;6151097;23;20436;-76
2023/03/11 11:56:01;;;;;;;7.45;0.45;;;7.40;63.00;;;;;;6127724;23;20033;-77
2023/03/11 11:58:30;;;;;;;7.45;0.40;;;7.30;62.10;;;;;;6125675;23;20027;-78
2023/03/11 12:01:23;;;;;;;1.10;0.20;;;7.60;62.40;;;;;;6124409;23;20436;-80
2023/03/11 12:04:12;;;;;;;2.45;0.20;;;7.90;62.50;;;;;;6148427;23;20072;-79
2023/03/11 12:06:48;;;;;;;3.15;0.38;;;8.20;62.20;;;;;;6152389;23;20033;-79
2023/03/11 12:09:33;;;;;;;3.53;0.70;;;7.70;61.60;;;;;;6150683;23;20516;-80
2023/03/11 12:13:04;;;;;;;5.32;2.13;;;7.70;62.50;;;;;;6149285;23;20021;-78
2023/03/11 12:15:42;;;;;;;4.28;1.15;;;7.80;61.90;;;;;;6125153;23;20021;-78
2023/03/11 12:18:27;;;;;;;4.32;1.85;;;7.50;62.60;;;;;;6130860;23;20035;-79
2023/03/11 12:20:56;;;;;;;2.75;0.50;;;7.60;63.30;;;;;;6107040;23;20028;-78
2023/03/11 12:23:45;;;;;;;3.03;0.40;;;7.60;63.10;;;;;;6119159;23;20021;-78
2023/03/11 12:26:19;;;;;;;3.70;0.80;;;7.40;62.10;;;;;;6120335;23;20031;-77
2023/03/11 12:29:07;;;;;;;5.05;1.55;;;7.80;62.30;;;;;;6144612;23;20017;-80
2023/03/11 12:31:38;;;;;;;3.08;0.20;;;6.70;61.20;;;;;;6120160;23;20456;-78
2023/03/11 12:34:11;;;;;;;4.15;0.95;;;8.50;61.10;;;;;;6119172;23;20384;-79
2023/03/11 12:36:42;;;;;;;1.23;0.40;;;8.40;60.80;;;;;;6120332;23;20028;-77
2023/03/11 12:39:30;;;;;;;1.35;0.60;;;8.40;60.90;;;;;;6145796;23;20453;-79
2023/03/11 12:42:10;;;;;;;3.90;1.05;;;8.10;60.70;;;;;;6123105;23;20033;-79
2023/03/11 12:44:38;;;;;;;7.82;2.60;;;7.70;61.10;;;;;;6122032;23;20475;-79
2023/03/11 12:47:12;;;;;;;3.80;1.20;;;7.80;62.00;;;;;;6122612;23;20025;-78
2023/03/11 12:49:42;;;;;;;7.03;1.60;;;7.80;62.00;;;;;;6122037;23;20115;-79
2023/03/11 12:52:13;;;;;;;6.43;0.45;;;7.90;61.50;;;;;;6145655;23;20482;-78
2023/03/11 12:55:09;;;;;;;4.85;0.95;;;7.90;61.30;;;;;;6120467;23;20028;-79
2023/03/11 12:57:49;;;;;;;4.30;1.05;;;7.80;61.10;;;;;;6151013;23;20558;-79
2023/03/11 13:00:38;;;;;;;5.63;1.10;;;8.70;61.20;;;;;;6145472;23;20076;-79
2023/03/11 13:03:15;;;;;;;5.75;0.98;;;7.90;61.40;;;;;;6147503;23;20031;-80
2023/03/11 13:06:02;;;;;;;5.43;2.17;;;8.40;61.80;;;;;;6144211;23;20287;-77
2023/03/11 13:08:45;;;;;;;10.50;3.78;;;7.90;61.20;;;;;;6140444;23;20241;-78
2023/03/11 13:11:30;;;;;;;5.57;0.50;;;7.30;61.00;;;;;;6080508;23;20610;-79
2023/03/11 13:14:31;;;;;;;18.45;8.10;;;8.00;60.40;;;;;;6082299;23;20118;-79
2023/03/11 13:17:23;;;;;;;4.97;1.80;;;7.00;60.70;;;;;;6082660;23;20426;-78
2023/03/11 13:19:58;;;;;;;2.17;0.40;;;8.60;62.10;;;;;;6079040;23;20053;-79
2023/03/11 13:23:08;;;;;;;4.82;0.73;;;7.30;61.50;;;;;;6079055;23;20533;-79
2023/03/11 13:25:53;;;;;;;2.10;0.50;;;7.30;61.60;;;;;;6079795;23;20498;-80